createdAt,value
2022-09-30T00:01:52.826Z,99.80
2022-09-30T00:04:23.698Z,99.70
2022-09-30T00:06:56.189Z,99.80
2022-09-30T00:09:25.227Z,99.90
2022-09-30T00:11:53.666Z,99.80
2022-09-30T00:14:26.125Z,99.80
2022-09-30T00:16:53.700Z,99.70
2022-09-30T00:19:21.816Z,99.50
2022-09-30T00:21:49.591Z,99.60
2022-09-30T00:24:17.350Z,99.40
2022-09-30T00:26:45.512Z,99.40
2022-09-30T00:29:13.158Z,99.50
2022-09-30T00:31:41.276Z,99.40
2022-09-30T00:34:11.682Z,99.40
2022-09-30T00:36:44.734Z,99.60
2022-09-30T00:39:25.051Z,99.50
2022-09-30T00:41:58.731Z,99.60
2022-09-30T00:44:45.918Z,99.80
2022-09-30T00:47:31.659Z,99.80
2022-09-30T00:50:12.509Z,99.60
2022-09-30T00:52:40.849Z,99.30
2022-09-30T00:55:15.548Z,98.90
2022-09-30T00:57:43.376Z,99.00
2022-09-30T01:00:11.418Z,98.90
2022-09-30T01:02:39.031Z,98.80
2022-09-30T01:05:09.621Z,98.60
2022-09-30T01:07:38.305Z,98.60
2022-09-30T01:10:06.282Z,98.50
2022-09-30T01:12:34.120Z,98.40
2022-09-30T01:15:02.883Z,98.10
2022-09-30T01:17:55.190Z,98.00
2022-09-30T01:20:43.864Z,98.00
2022-09-30T01:23:32.919Z,98.10
2022-09-30T01:26:29.741Z,97.80
2022-09-30T01:29:09.446Z,98.00
2022-09-30T01:31:49.967Z,98.20
2022-09-30T01:35:01.265Z,98.10
2022-09-30T01:37:50.348Z,98.30
2022-09-30T01:40:32.865Z,98.60
2022-09-30T01:43:17.008Z,98.60
2022-09-30T01:45:56.022Z,98.70
2022-09-30T01:48:27.425Z,98.70
2022-09-30T01:50:59.066Z,99.00
2022-09-30T01:53:33.389Z,99.00
2022-09-30T01:56:18.051Z,98.90
2022-09-30T01:58:46.124Z,98.60
2022-09-30T02:01:55.349Z,98.50
2022-09-30T02:04:41.523Z,98.30
2022-09-30T02:07:14.396Z,98.30
2022-09-30T02:09:50.182Z,98.20
2022-09-30T02:12:24.599Z,98.20
2022-09-30T02:15:26.088Z,98.20
2022-09-30T02:17:58.474Z,97.90
2022-09-30T02:20:34.321Z,97.90
2022-09-30T02:23:12.948Z,98.00
2022-09-30T02:25:45.647Z,97.90
2022-09-30T02:28:27.597Z,98.00
2022-09-30T02:31:00.184Z,98.00
2022-09-30T02:34:14.015Z,97.90
2022-09-30T02:36:50.723Z,97.90
2022-09-30T02:39:41.211Z,97.90
2022-09-30T02:42:33.177Z,97.90
2022-09-30T02:45:08.916Z,97.80
2022-09-30T02:47:57.485Z,97.80
2022-09-30T02:50:36.657Z,97.90
2022-09-30T02:53:07.509Z,97.90
2022-09-30T02:55:57.429Z,97.70
2022-09-30T02:58:26.339Z,97.70
2022-09-30T03:00:54.927Z,97.70
2022-09-30T03:03:54.035Z,97.90
2022-09-30T03:06:22.357Z,97.70
2022-09-30T03:08:51.692Z,97.50
2022-09-30T03:11:26.392Z,97.80
2022-09-30T03:14:13.133Z,97.40
2022-09-30T03:16:59.195Z,97.60
2022-09-30T03:19:39.265Z,97.60
2022-09-30T03:22:28.597Z,97.70
2022-09-30T03:25:23.945Z,97.80
2022-09-30T03:28:30.409Z,97.80
2022-09-30T03:31:23.362Z,97.90
2022-09-30T03:34:19.240Z,98.10
2022-09-30T03:37:12.533Z,98.00
2022-09-30T03:40:02.943Z,98.10
2022-09-30T03:42:46.012Z,98.20
2022-09-30T03:45:20.662Z,98.00
2022-09-30T03:47:54.356Z,98.00
2022-09-30T03:50:24.791Z,98.20
2022-09-30T03:52:53.020Z,98.20
2022-09-30T03:55:22.605Z,98.00
2022-09-30T03:57:51.450Z,98.10
2022-09-30T04:00:19.534Z,98.10
2022-09-30T04:02:53.582Z,98.00
2022-09-30T04:05:23.853Z,98.10
2022-09-30T04:07:51.696Z,97.70
2022-09-30T04:10:19.503Z,97.70
2022-09-30T04:12:47.551Z,97.60
2022-09-30T04:15:15.226Z,97.70
2022-09-30T04:17:43.570Z,97.40
2022-09-30T04:20:12.971Z,97.50
2022-09-30T04:22:40.722Z,97.70
2022-09-30T04:25:09.041Z,97.80
2022-09-30T04:27:37.404Z,97.70
2022-09-30T04:30:05.932Z,97.60
2022-09-30T04:32:33.784Z,98.00
2022-09-30T04:35:01.964Z,97.60
2022-09-30T04:37:29.677Z,97.40
2022-09-30T04:39:57.870Z,97.60
2022-09-30T04:42:25.883Z,97.90
2022-09-30T04:44:53.621Z,98.00
2022-09-30T04:47:21.607Z,98.10
2022-09-30T04:49:49.567Z,98.20
2022-09-30T04:52:17.180Z,98.10
2022-09-30T04:54:44.836Z,98.50
2022-09-30T04:57:14.222Z,98.40
2022-09-30T04:59:41.907Z,98.40
2022-09-30T05:02:09.984Z,98.10
2022-09-30T05:04:38.047Z,98.30
2022-09-30T05:07:09.178Z,98.50
2022-09-30T05:09:41.549Z,98.50
2022-09-30T05:12:09.802Z,98.40
2022-09-30T05:14:38.319Z,98.20
2022-09-30T05:17:05.966Z,98.60
2022-09-30T05:19:36.569Z,98.90
2022-09-30T05:22:04.195Z,99.00
2022-09-30T05:24:32.029Z,98.90
2022-09-30T05:26:59.965Z,98.90
2022-09-30T05:29:27.626Z,98.90
2022-09-30T05:31:58.462Z,98.70
2022-09-30T05:34:26.542Z,98.70
2022-09-30T05:36:54.218Z,98.80
2022-09-30T05:39:21.833Z,98.90
2022-09-30T05:41:51.087Z,99.00
2022-09-30T05:44:19.454Z,98.90
2022-09-30T05:46:49.441Z,99.10
2022-09-30T05:49:17.537Z,99.10
2022-09-30T05:51:45.579Z,99.10
2022-09-30T05:54:13.314Z,99.30
2022-09-30T05:56:41.205Z,99.40
2022-09-30T05:59:11.608Z,99.50
2022-09-30T06:01:39.346Z,99.50
2022-09-30T06:04:07.293Z,99.60
2022-09-30T06:06:34.919Z,99.70
2022-09-30T06:09:02.681Z,99.90
2022-09-30T06:11:31.782Z,99.80
2022-09-30T06:13:59.472Z,99.80
2022-09-30T06:16:27.333Z,99.70
2022-09-30T06:18:55.615Z,99.80
2022-09-30T06:21:23.670Z,99.70
2022-09-30T06:23:51.578Z,99.80
2022-09-30T06:26:19.804Z,99.60
2022-09-30T06:28:47.512Z,99.70
2022-09-30T06:31:15.490Z,99.70
2022-09-30T06:33:43.839Z,99.70
2022-09-30T06:36:11.622Z,99.80
2022-09-30T06:38:40.142Z,99.80
2022-09-30T06:41:10.622Z,99.80
2022-09-30T06:43:46.039Z,99.90
2022-09-30T06:46:30.510Z,99.90
2022-09-30T06:49:14.569Z,99.90
2022-09-30T06:51:42.947Z,99.90
2022-09-30T06:54:13.789Z,99.90
2022-09-30T06:56:42.052Z,99.90
2022-09-30T06:59:11.961Z,99.90
2022-09-30T07:01:39.722Z,99.60
2022-09-30T07:04:12.999Z,99.60
2022-09-30T07:06:48.254Z,99.60
2022-09-30T07:09:19.281Z,99.60
2022-09-30T07:11:49.874Z,99.60
2022-09-30T07:14:22.504Z,99.30
2022-09-30T07:17:18.793Z,99.60
2022-09-30T07:19:46.499Z,99.70
2022-09-30T07:22:32.129Z,99.70
2022-09-30T07:25:04.734Z,99.70
2022-09-30T07:27:42.672Z,99.70
2022-09-30T07:30:27.477Z,99.60
2022-09-30T07:33:02.447Z,99.60
2022-09-30T07:35:33.613Z,99.70
2022-09-30T07:38:02.135Z,99.50
2022-09-30T07:40:31.563Z,99.50
2022-09-30T07:43:00.697Z,99.40
2022-09-30T07:45:31.186Z,99.30
2022-09-30T07:47:59.768Z,99.30
2022-09-30T07:50:29.987Z,99.30
2022-09-30T07:53:03.942Z,99.50
2022-09-30T07:55:52.750Z,99.10
2022-09-30T07:58:20.330Z,98.90
2022-09-30T08:00:52.046Z,98.80
2022-09-30T08:03:20.102Z,98.70
2022-09-30T08:05:48.770Z,98.50
2022-09-30T08:08:18.090Z,98.40
2022-09-30T08:10:48.298Z,98.20
2022-09-30T08:13:17.283Z,98.30
2022-09-30T08:15:45.909Z,98.10
2022-09-30T08:18:16.705Z,97.80
2022-09-30T08:20:44.553Z,97.80
2022-09-30T08:23:12.159Z,98.00
2022-09-30T08:25:40.093Z,97.80
2022-09-30T08:28:07.810Z,97.70
2022-09-30T08:30:37.203Z,97.30
2022-09-30T08:33:06.104Z,97.00
2022-09-30T08:35:36.834Z,96.80
2022-09-30T08:38:04.560Z,96.70
2022-09-30T08:40:39.446Z,96.50
2022-09-30T08:43:39.026Z,96.60
2022-09-30T08:46:13.168Z,96.20
2022-09-30T08:49:21.698Z,96.30
2022-09-30T08:51:52.169Z,95.80
2022-09-30T08:54:29.923Z,95.90
2022-09-30T08:56:59.108Z,95.80
2022-09-30T08:59:37.279Z,96.00
2022-09-30T09:02:27.956Z,96.00
2022-09-30T09:05:00.811Z,95.90
2022-09-30T09:07:49.351Z,95.80
2022-09-30T09:10:27.071Z,95.60
2022-09-30T09:13:23.609Z,95.50
2022-09-30T09:16:21.587Z,95.10
2022-09-30T09:19:06.325Z,94.80
2022-09-30T09:21:54.772Z,94.30
2022-09-30T09:24:51.170Z,93.80
2022-09-30T09:27:38.502Z,93.30
2022-09-30T09:30:12.569Z,92.80
2022-09-30T09:32:40.710Z,93.40
2022-09-30T09:38:44.646Z,92.70
2022-09-30T09:42:10.223Z,92.60
2022-09-30T09:44:49.549Z,92.00
2022-09-30T09:47:21.692Z,92.10
2022-09-30T09:50:04.687Z,92.40
2022-09-30T09:52:58.080Z,91.70
2022-09-30T09:55:25.716Z,91.70
2022-09-30T09:58:14.134Z,91.70
2022-09-30T10:00:51.480Z,91.40
2022-09-30T10:03:24.388Z,91.40
2022-09-30T10:06:18.172Z,91.50
2022-09-30T10:08:55.655Z,90.60
2022-09-30T10:11:25.961Z,91.00
2022-09-30T10:13:58.489Z,91.20
2022-09-30T10:16:35.597Z,90.90
2022-09-30T10:19:16.761Z,90.70
2022-09-30T10:21:44.506Z,90.40
2022-09-30T10:24:43.529Z,90.40
2022-09-30T10:27:49.405Z,89.60
2022-09-30T10:30:38.795Z,90.40
2022-09-30T10:33:27.060Z,90.70
2022-09-30T10:36:09.756Z,91.00
2022-09-30T10:38:46.003Z,91.10
2022-09-30T10:41:14.715Z,91.10
2022-09-30T10:43:52.443Z,90.70
2022-09-30T10:46:57.615Z,90.70
2022-09-30T10:49:38.246Z,90.50
2022-09-30T10:52:18.816Z,90.10
2022-09-30T10:55:01.133Z,90.40
2022-09-30T10:57:38.915Z,88.80
2022-09-30T11:00:14.879Z,89.70
2022-09-30T11:03:05.872Z,89.40
2022-09-30T11:05:49.831Z,88.90
2022-09-30T11:08:49.088Z,89.30
2022-09-30T11:11:24.491Z,87.70
2022-09-30T11:14:14.509Z,89.10
2022-09-30T11:17:37.703Z,88.50
2022-09-30T11:20:34.177Z,88.10
2022-09-30T11:23:17.053Z,87.10
2022-09-30T11:26:09.851Z,88.20
2022-09-30T11:28:57.093Z,88.10
2022-09-30T11:31:43.449Z,88.50
2022-09-30T11:34:35.440Z,89.10
2022-09-30T11:37:16.566Z,86.60
2022-09-30T11:40:12.480Z,87.70
2022-09-30T11:42:56.673Z,87.50
2022-09-30T11:45:46.403Z,87.80
2022-09-30T11:48:48.792Z,87.50
2022-09-30T11:51:18.632Z,87.80
2022-09-30T11:54:05.872Z,88.20
2022-09-30T11:56:45.910Z,88.10
2022-09-30T11:59:48.850Z,88.20
2022-09-30T12:02:48.974Z,87.50
2022-09-30T12:05:35.843Z,86.80
2022-09-30T12:08:27.016Z,87.10
2022-09-30T12:11:10.141Z,87.80
2022-09-30T12:13:42.317Z,86.80
2022-09-30T12:16:20.140Z,87.00
2022-09-30T12:18:56.362Z,87.20
2022-09-30T12:21:35.732Z,86.90
2022-09-30T12:24:24.085Z,86.20
2022-09-30T12:26:55.134Z,85.60
2022-09-30T12:29:55.381Z,86.00
2022-09-30T12:32:40.772Z,85.40
2022-09-30T12:35:23.760Z,85.60
2022-09-30T12:38:30.989Z,84.60
2022-09-30T12:41:25.780Z,84.70
2022-09-30T12:44:33.138Z,84.10
2022-09-30T12:47:06.664Z,84.30
2022-09-30T12:49:38.227Z,84.80
2022-09-30T12:52:13.017Z,84.90
2022-09-30T12:54:48.601Z,84.90
2022-09-30T12:57:33.164Z,85.70
2022-09-30T13:00:13.873Z,85.00
2022-09-30T13:02:47.418Z,84.60
2022-09-30T13:05:29.721Z,84.80
2022-09-30T13:08:06.607Z,83.90
2022-09-30T13:10:39.578Z,84.30
2022-09-30T13:13:29.331Z,84.70
2022-09-30T13:16:04.779Z,84.10
2022-09-30T13:18:32.599Z,85.60
2022-09-30T13:21:07.997Z,84.80
2022-09-30T13:23:55.668Z,83.80
2022-09-30T13:26:23.850Z,83.90
2022-09-30T13:28:53.958Z,84.50
2022-09-30T13:31:23.904Z,84.20
2022-09-30T13:34:10.076Z,85.00
2022-09-30T13:36:53.054Z,84.70
2022-09-30T13:39:46.129Z,83.50
2022-09-30T13:42:18.079Z,84.10
2022-09-30T13:45:23.560Z,85.20
2022-09-30T13:48:11.335Z,83.70
2022-09-30T13:50:54.375Z,84.30
2022-09-30T13:54:06.012Z,83.50
2022-09-30T13:57:08.521Z,84.40
2022-09-30T14:00:18.177Z,85.00
2022-09-30T14:03:05.325Z,84.10
2022-09-30T14:05:35.348Z,84.90
2022-09-30T14:27:16.251Z,82.20
2022-09-30T14:30:03.850Z,83.50
2022-09-30T14:32:59.171Z,84.40
2022-09-30T14:36:24.806Z,85.10
2022-09-30T14:39:00.900Z,85.30
2022-09-30T14:41:35.137Z,85.60
2022-09-30T14:44:07.849Z,85.60
2022-09-30T14:46:49.216Z,86.60
2022-09-30T14:49:28.999Z,86.20
2022-09-30T14:52:00.310Z,86.60
2022-09-30T14:54:31.614Z,87.00
2022-09-30T14:57:03.245Z,87.20
2022-09-30T14:59:42.058Z,87.30
2022-09-30T15:02:22.061Z,87.70
2022-09-30T15:04:59.272Z,87.40
2022-09-30T15:07:32.139Z,87.40
2022-09-30T15:10:03.134Z,87.30
2022-09-30T15:12:32.605Z,87.60
2022-09-30T15:15:02.043Z,87.80
2022-09-30T15:17:40.646Z,87.80
2022-09-30T15:20:29.766Z,88.10
2022-09-30T15:23:03.610Z,87.60
2022-09-30T15:25:35.220Z,88.00
2022-09-30T15:28:03.880Z,88.00
2022-09-30T15:30:33.578Z,88.10
2022-09-30T15:33:05.249Z,88.30
2022-09-30T15:35:35.220Z,88.60
2022-09-30T15:38:30.732Z,88.70
2022-09-30T15:41:06.698Z,89.10
2022-09-30T15:43:42.483Z,89.60
2022-09-30T15:46:34.023Z,89.70
2022-09-30T15:49:29.291Z,89.80
2022-09-30T15:52:28.796Z,89.90
2022-09-30T15:55:29.024Z,90.10
2022-09-30T15:58:02.995Z,90.40
2022-09-30T16:00:38.554Z,90.00
2022-09-30T16:03:26.821Z,90.20
2022-09-30T16:06:09.395Z,90.30
2022-09-30T16:08:54.675Z,90.30
2022-09-30T16:11:31.199Z,90.20
2022-09-30T16:14:00.448Z,90.30
2022-09-30T16:16:34.904Z,90.30
2022-09-30T16:19:18.827Z,90.40
2022-09-30T16:21:51.915Z,90.60
2022-09-30T16:24:24.165Z,90.60
2022-09-30T16:26:57.607Z,90.70
2022-09-30T16:29:30.169Z,90.60
2022-09-30T16:31:59.284Z,90.80
2022-09-30T16:34:31.617Z,91.30
2022-09-30T16:37:21.755Z,91.60
2022-09-30T16:39:50.924Z,91.90
2022-09-30T16:42:21.001Z,92.00
2022-09-30T16:44:56.290Z,92.20
2022-09-30T16:47:26.401Z,92.30
2022-09-30T16:49:54.882Z,92.50
2022-09-30T16:52:25.195Z,92.60
2022-09-30T16:54:57.526Z,93.00
2022-09-30T16:57:26.250Z,92.80
2022-09-30T16:59:55.747Z,92.90
2022-09-30T17:02:24.815Z,93.10
2022-09-30T17:04:53.327Z,93.20
2022-09-30T17:07:24.440Z,93.40
2022-09-30T17:09:55.782Z,93.50
2022-09-30T17:12:29.171Z,93.50
2022-09-30T17:15:10.769Z,93.70
2022-09-30T17:17:39.015Z,93.90
2022-09-30T17:20:11.915Z,94.40
2022-09-30T17:22:43.656Z,94.20
2022-09-30T17:25:17.424Z,94.40
2022-09-30T17:27:50.518Z,94.50
2022-09-30T17:30:19.912Z,94.60
2022-09-30T17:32:48.945Z,94.60
2022-09-30T17:35:17.696Z,94.50
2022-09-30T17:37:51.135Z,94.50
2022-09-30T17:40:37.773Z,94.40
2022-09-30T17:43:11.023Z,94.40
2022-09-30T17:45:45.014Z,94.40
2022-09-30T17:48:16.519Z,94.30
2022-09-30T17:50:46.897Z,94.10
2022-09-30T17:53:19.420Z,94.10
2022-09-30T17:55:50.186Z,94.70
2022-09-30T17:58:19.697Z,94.20
2022-09-30T18:00:48.021Z,94.10
2022-09-30T18:03:19.614Z,93.90
2022-09-30T18:05:48.264Z,94.00
2022-09-30T18:08:19.776Z,94.10
2022-09-30T18:10:48.480Z,94.20
2022-09-30T18:13:43.394Z,94.30
2022-09-30T18:16:12.043Z,94.50
2022-09-30T18:18:40.682Z,94.90
2022-09-30T18:23:58.928Z,94.80
2022-09-30T18:26:33.188Z,94.80
2022-09-30T18:29:03.888Z,95.00
2022-09-30T18:31:37.718Z,95.00
2022-09-30T18:34:16.857Z,95.00
2022-09-30T18:36:45.810Z,95.00
2022-09-30T18:39:16.359Z,95.10
2022-09-30T18:41:49.101Z,95.20
2022-09-30T18:44:18.810Z,95.50
2022-09-30T18:46:47.677Z,95.60
2022-09-30T18:49:16.182Z,95.70
2022-09-30T18:51:44.548Z,95.80
2022-09-30T18:54:13.503Z,95.70
2022-09-30T18:56:44.334Z,95.80
2022-09-30T18:59:18.269Z,95.80
2022-09-30T19:01:50.564Z,95.90
2022-09-30T19:04:21.793Z,96.00
2022-09-30T19:06:50.909Z,96.00
2022-09-30T19:09:26.916Z,96.10
2022-09-30T19:11:59.709Z,96.20
2022-09-30T19:14:32.698Z,96.30
2022-09-30T19:17:05.422Z,96.20
2022-09-30T19:19:41.479Z,96.30
2022-09-30T19:22:12.259Z,96.40
2022-09-30T19:24:48.072Z,96.50
2022-09-30T19:27:23.278Z,96.50
2022-09-30T19:29:54.963Z,96.70
2022-09-30T19:32:30.367Z,96.80
2022-09-30T19:35:06.041Z,96.90
2022-09-30T19:37:37.621Z,96.90
2022-09-30T19:40:20.440Z,97.00
2022-09-30T19:42:53.422Z,97.00
2022-09-30T19:45:26.116Z,97.00
2022-09-30T19:48:01.814Z,97.10
2022-09-30T19:50:36.157Z,97.10
2022-09-30T19:53:04.752Z,97.20
2022-09-30T19:55:47.220Z,97.30
2022-09-30T19:58:25.036Z,97.30
2022-09-30T20:00:56.881Z,97.40
2022-09-30T20:03:36.513Z,97.50
2022-09-30T20:06:15.052Z,97.50
2022-09-30T20:08:56.126Z,97.60
2022-09-30T20:11:25.437Z,97.60
2022-09-30T20:14:14.371Z,97.90
2022-09-30T20:16:44.229Z,97.60
2022-09-30T20:19:12.598Z,97.70
2022-09-30T20:21:43.413Z,97.70
2022-09-30T20:24:16.108Z,97.80
2022-09-30T20:27:02.490Z,97.80
2022-09-30T20:29:30.561Z,97.90
2022-09-30T20:32:00.885Z,97.90
2022-09-30T20:34:33.552Z,97.90
2022-09-30T20:37:04.875Z,97.90
2022-09-30T20:39:34.793Z,97.90
2022-09-30T20:42:03.931Z,98.00
2022-09-30T20:44:34.939Z,98.30
2022-09-30T20:47:02.953Z,98.10
2022-09-30T20:49:30.869Z,98.00
2022-09-30T20:52:04.155Z,98.00
2022-09-30T20:54:32.802Z,97.80
2022-09-30T20:57:08.665Z,98.00
2022-09-30T20:59:37.388Z,98.00
2022-09-30T21:02:07.220Z,97.90
2022-09-30T21:04:35.510Z,97.90
2022-09-30T21:07:03.371Z,98.00
2022-09-30T21:09:34.901Z,98.10
2022-09-30T21:12:02.755Z,98.10
2022-09-30T21:14:30.576Z,98.10
2022-09-30T21:16:58.815Z,98.30
2022-09-30T21:19:26.518Z,98.10
2022-09-30T21:21:56.979Z,98.10
2022-09-30T21:24:26.189Z,98.10
2022-09-30T21:26:56.091Z,98.20
2022-09-30T21:29:24.122Z,98.20
2022-09-30T21:31:52.196Z,98.20
2022-09-30T21:34:22.204Z,98.30
2022-09-30T21:36:50.068Z,98.30
2022-09-30T21:39:18.197Z,98.30
2022-09-30T21:41:46.218Z,98.30
2022-09-30T21:44:15.520Z,98.30
2022-09-30T21:46:48.200Z,98.20
2022-09-30T21:49:23.199Z,98.20
2022-09-30T21:51:55.460Z,98.20
2022-09-30T21:54:23.494Z,98.20
2022-09-30T21:56:51.795Z,98.30
2022-09-30T21:59:19.911Z,98.30
2022-09-30T22:01:47.998Z,98.30
2022-09-30T22:04:15.727Z,98.30
2022-09-30T22:06:45.803Z,98.30
2022-09-30T22:09:13.743Z,98.40
2022-09-30T22:11:43.994Z,98.30
2022-09-30T22:14:12.119Z,98.40
2022-09-30T22:16:39.941Z,98.40
2022-09-30T22:19:09.197Z,98.40
2022-09-30T22:21:38.065Z,98.20
2022-09-30T22:24:06.859Z,98.00
2022-09-30T22:26:35.398Z,98.00
2022-09-30T22:29:06.950Z,97.90
2022-09-30T22:31:35.259Z,97.60
2022-09-30T22:34:24.373Z,97.60
2022-09-30T22:37:11.542Z,97.70
2022-09-30T22:39:39.271Z,97.70
2022-09-30T22:42:09.928Z,97.60
2022-09-30T22:44:39.995Z,97.60
2022-09-30T22:47:09.818Z,97.70
2022-09-30T22:49:37.733Z,97.80
2022-09-30T22:52:06.870Z,97.70
2022-09-30T22:54:38.342Z,97.70
2022-09-30T22:57:09.331Z,97.70
2022-09-30T22:59:37.506Z,97.90
2022-09-30T23:02:05.954Z,98.00
2022-09-30T23:04:34.171Z,98.30
2022-09-30T23:07:02.223Z,98.30
2022-09-30T23:09:31.349Z,98.40
2022-09-30T23:11:59.391Z,98.40
2022-09-30T23:14:27.437Z,98.50
2022-09-30T23:16:55.324Z,98.50
2022-09-30T23:19:23.031Z,98.60
2022-09-30T23:21:51.026Z,98.70
2022-09-30T23:24:18.846Z,98.70
2022-09-30T23:26:48.125Z,98.70
2022-09-30T23:29:16.820Z,98.70
2022-09-30T23:31:44.595Z,98.80
2022-09-30T23:34:13.345Z,98.90
2022-09-30T23:36:41.342Z,98.90
2022-09-30T23:39:18.672Z,99.00
2022-09-30T23:41:48.438Z,99.00
2022-09-30T23:44:19.945Z,99.00
2022-09-30T23:47:20.934Z,99.10
2022-09-30T23:49:48.831Z,99.10
2022-09-30T23:52:18.016Z,99.10
2022-09-30T23:54:45.794Z,99.20
2022-09-30T23:57:13.582Z,99.20
2022-09-30T23:59:41.601Z,99.40
